createdAt,value
2022-09-07T00:00:14.340Z,23.00
2022-09-07T00:01:16.631Z,23.10
2022-09-07T00:02:15.236Z,23.30
2022-09-07T00:03:14.787Z,23.10
2022-09-07T00:04:12.802Z,22.90
2022-09-07T00:05:14.966Z,22.50
2022-09-07T00:06:15.722Z,22.20
2022-09-07T00:07:15.357Z,21.70
2022-09-07T00:08:14.846Z,21.30
2022-09-07T00:09:15.414Z,21.10
2022-09-07T00:10:13.318Z,20.90
2022-09-07T00:11:13.337Z,20.80
2022-09-07T00:12:13.209Z,20.70
2022-09-07T00:13:15.504Z,20.60
2022-09-07T00:14:13.448Z,20.60
2022-09-07T00:15:13.221Z,20.60
2022-09-07T00:16:13.373Z,20.50
2022-09-07T00:17:13.713Z,20.50
2022-09-07T00:18:13.936Z,20.50
2022-09-07T00:19:12.787Z,20.50
2022-09-07T00:20:14.186Z,20.50
2022-09-07T00:21:13.265Z,20.50
2022-09-07T00:22:13.483Z,20.50
2022-09-07T00:23:16.364Z,20.50
2022-09-07T00:24:15.443Z,20.50
2022-09-07T00:25:13.572Z,20.40
2022-09-07T00:26:13.391Z,20.20
2022-09-07T00:27:15.424Z,20.00
2022-09-07T00:28:13.421Z,19.90
2022-09-07T00:29:13.447Z,19.80
2022-09-07T00:30:14.499Z,19.80
2022-09-07T00:31:13.508Z,19.60
2022-09-07T00:32:13.380Z,19.60
2022-09-07T00:33:14.867Z,19.50
2022-09-07T00:34:14.230Z,19.50
2022-09-07T00:35:13.443Z,19.50
2022-09-07T00:36:13.766Z,19.60
2022-09-07T00:37:14.221Z,19.50
2022-09-07T00:38:14.237Z,19.50
2022-09-07T00:39:13.393Z,19.40
2022-09-07T00:40:13.423Z,19.40
2022-09-07T00:41:13.369Z,19.40
2022-09-07T00:42:13.413Z,19.50
2022-09-07T00:43:13.442Z,19.50
2022-09-07T00:44:14.933Z,19.30
2022-09-07T00:45:12.827Z,19.30
2022-09-07T00:46:13.824Z,19.30
2022-09-07T00:47:13.822Z,19.30
2022-09-07T00:48:14.048Z,19.30
2022-09-07T00:49:12.922Z,19.40
2022-09-07T00:50:14.463Z,19.30
2022-09-07T00:51:13.396Z,19.30
2022-09-07T00:52:13.199Z,19.30
2022-09-07T00:53:14.110Z,19.30
2022-09-07T00:54:15.675Z,19.40
2022-09-07T00:55:13.900Z,19.50
2022-09-07T00:56:12.802Z,19.40
2022-09-07T00:57:19.050Z,19.30
2022-09-07T00:58:12.963Z,19.30
2022-09-07T00:59:13.238Z,19.20
2022-09-07T01:00:13.280Z,19.20
2022-09-07T01:01:13.179Z,19.10
2022-09-07T01:02:13.203Z,19.10
2022-09-07T01:03:13.530Z,19.10
2022-09-07T01:04:13.551Z,19.00
2022-09-07T01:05:14.811Z,18.80
2022-09-07T01:06:15.163Z,18.70
2022-09-07T01:07:13.352Z,18.70
2022-09-07T01:08:13.540Z,18.60
2022-09-07T01:09:13.434Z,18.70
2022-09-07T01:10:13.444Z,18.60
2022-09-07T01:11:14.546Z,18.40
2022-09-07T01:12:13.942Z,18.30
2022-09-07T01:13:12.800Z,18.20
2022-09-07T01:14:13.725Z,18.30
2022-09-07T01:15:15.285Z,18.30
2022-09-07T01:16:13.562Z,18.40
2022-09-07T01:17:13.444Z,18.30
2022-09-07T01:18:13.348Z,18.40
2022-09-07T01:19:13.644Z,18.30
2022-09-07T01:20:13.672Z,18.20
2022-09-07T01:21:13.714Z,18.00
2022-09-07T01:22:13.652Z,18.00
2022-09-07T01:23:13.470Z,18.10
2022-09-07T01:24:13.329Z,18.00
2022-09-07T01:25:13.172Z,18.10
2022-09-07T01:26:13.089Z,18.00
2022-09-07T01:27:13.040Z,17.80
2022-09-07T01:28:12.984Z,17.90
2022-09-07T01:29:13.100Z,17.80
2022-09-07T01:30:13.140Z,17.90
2022-09-07T01:31:13.320Z,18.00
2022-09-07T01:32:13.523Z,18.10
2022-09-07T01:33:13.387Z,18.10
2022-09-07T01:34:13.844Z,17.80
2022-09-07T01:35:13.764Z,17.70
2022-09-07T01:36:13.646Z,17.70
2022-09-07T01:37:13.426Z,17.90
2022-09-07T01:38:13.457Z,17.90
2022-09-07T01:39:13.336Z,18.00
2022-09-07T01:40:13.666Z,17.90
2022-09-07T01:41:13.502Z,18.00
2022-09-07T01:42:13.337Z,18.00
2022-09-07T01:43:13.317Z,17.90
2022-09-07T01:44:13.237Z,18.00
2022-09-07T01:45:13.109Z,17.90
2022-09-07T01:46:13.371Z,17.90
2022-09-07T01:47:13.655Z,17.90
2022-09-07T01:48:13.743Z,17.80
2022-09-07T01:49:13.984Z,17.80
2022-09-07T01:50:12.907Z,17.80
2022-09-07T01:51:12.781Z,17.70
2022-09-07T01:52:13.678Z,17.90
2022-09-07T01:53:13.545Z,17.80
2022-09-07T01:54:13.386Z,17.80
2022-09-07T01:55:13.406Z,17.90
2022-09-07T01:56:13.320Z,18.00
2022-09-07T01:57:13.355Z,18.00
2022-09-07T01:58:13.379Z,18.00
2022-09-07T01:59:13.280Z,17.90
2022-09-07T02:00:13.176Z,17.90
2022-09-07T02:01:13.401Z,17.90
2022-09-07T02:02:13.706Z,17.90
2022-09-07T02:03:14.189Z,18.00
2022-09-07T02:04:13.398Z,18.00
2022-09-07T02:05:13.299Z,18.00
2022-09-07T02:06:13.197Z,17.90
2022-09-07T02:07:13.108Z,18.00
2022-09-07T02:08:13.027Z,17.90
2022-09-07T02:09:12.877Z,17.80
2022-09-07T02:10:13.726Z,17.70
2022-09-07T02:11:13.606Z,17.70
2022-09-07T02:12:13.492Z,17.70
2022-09-07T02:13:13.316Z,17.80
2022-09-07T02:14:13.148Z,17.80
2022-09-07T02:15:13.390Z,17.90
2022-09-07T02:16:13.742Z,18.00
2022-09-07T02:17:13.637Z,17.80
2022-09-07T02:18:13.990Z,17.80
2022-09-07T02:19:12.978Z,17.80
2022-09-07T02:20:13.162Z,17.80
2022-09-07T02:21:13.062Z,17.80
2022-09-07T02:22:13.502Z,17.90
2022-09-07T02:23:13.614Z,17.90
2022-09-07T02:24:14.190Z,17.90
2022-09-07T02:25:13.153Z,17.90
2022-09-07T02:26:13.047Z,17.90
2022-09-07T02:27:14.703Z,17.80
2022-09-07T02:28:13.794Z,17.90
2022-09-07T02:29:14.135Z,17.80
2022-09-07T02:30:13.078Z,17.70
2022-09-07T02:31:13.046Z,17.80
2022-09-07T02:32:13.176Z,17.80
2022-09-07T02:33:13.091Z,17.80
2022-09-07T02:34:13.046Z,17.70
2022-09-07T02:35:13.155Z,17.80
2022-09-07T02:36:13.025Z,17.70
2022-09-07T02:37:13.233Z,17.70
2022-09-07T02:38:13.505Z,17.70
2022-09-07T02:39:13.810Z,17.60
2022-09-07T02:40:13.832Z,17.60
2022-09-07T02:41:13.986Z,17.70
2022-09-07T02:42:13.061Z,17.60
2022-09-07T02:43:13.100Z,17.70
2022-09-07T02:44:13.417Z,17.60
2022-09-07T02:45:13.666Z,17.60
2022-09-07T02:46:14.117Z,17.60
2022-09-07T02:47:13.342Z,17.70
2022-09-07T02:48:13.528Z,17.60
2022-09-07T02:49:13.834Z,17.60
2022-09-07T02:50:13.692Z,17.60
2022-09-07T02:51:13.629Z,17.60
2022-09-07T02:52:13.472Z,17.60
2022-09-07T02:53:13.290Z,17.70
2022-09-07T02:54:13.561Z,17.70
2022-09-07T02:55:15.068Z,17.60
2022-09-07T02:56:13.119Z,17.60
2022-09-07T02:57:13.410Z,17.70
2022-09-07T02:58:13.487Z,17.70
2022-09-07T02:59:13.550Z,17.60
2022-09-07T03:00:13.675Z,17.60
2022-09-07T03:01:13.563Z,17.70
2022-09-07T03:02:13.670Z,17.60
2022-09-07T03:03:13.621Z,17.40
2022-09-07T03:04:13.441Z,17.60
2022-09-07T03:05:13.270Z,17.60
2022-09-07T03:06:13.234Z,17.60
2022-09-07T03:07:13.637Z,17.60
2022-09-07T03:08:13.727Z,17.40
2022-09-07T03:09:13.652Z,17.50
2022-09-07T03:10:13.484Z,17.50
2022-09-07T03:11:13.374Z,17.50
2022-09-07T03:12:13.448Z,17.60
2022-09-07T03:13:13.481Z,17.50
2022-09-07T03:14:13.757Z,17.60
2022-09-07T03:15:14.479Z,17.50
2022-09-07T03:16:13.499Z,17.50
2022-09-07T03:17:13.423Z,17.50
2022-09-07T03:18:13.327Z,17.40
2022-09-07T03:19:14.823Z,17.40
2022-09-07T03:20:13.674Z,17.50
2022-09-07T03:21:13.537Z,17.60
2022-09-07T03:22:13.414Z,17.70
2022-09-07T03:23:13.575Z,17.60
2022-09-07T03:24:13.418Z,17.70
2022-09-07T03:25:13.324Z,17.70
2022-09-07T03:26:13.394Z,17.60
2022-09-07T03:27:13.423Z,17.60
2022-09-07T03:28:15.271Z,17.70
2022-09-07T03:29:13.298Z,17.70
2022-09-07T03:30:13.364Z,17.70
2022-09-07T03:31:13.359Z,17.60
2022-09-07T03:32:13.323Z,17.60
2022-09-07T03:33:13.245Z,17.50
2022-09-07T03:34:13.061Z,17.50
2022-09-07T03:35:14.309Z,17.60
2022-09-07T03:36:13.406Z,17.60
2022-09-07T03:37:13.356Z,17.50
2022-09-07T03:38:13.277Z,17.60
2022-09-07T03:39:14.421Z,17.60
2022-09-07T03:40:13.394Z,17.60
2022-09-07T03:41:13.368Z,17.60
2022-09-07T03:42:13.497Z,17.50
2022-09-07T03:43:13.422Z,17.50
2022-09-07T03:44:13.424Z,17.40
2022-09-07T03:45:13.361Z,17.40
2022-09-07T03:46:13.628Z,17.50
2022-09-07T03:47:13.591Z,17.50
2022-09-07T03:48:13.523Z,17.40
2022-09-07T03:49:13.566Z,17.40
2022-09-07T03:50:13.661Z,17.40
2022-09-07T03:51:15.262Z,17.50
2022-09-07T03:52:13.112Z,17.50
2022-09-07T03:53:13.133Z,17.40
2022-09-07T03:54:14.000Z,17.50
2022-09-07T03:55:13.047Z,17.50
2022-09-07T03:56:13.274Z,17.40
2022-09-07T03:57:13.471Z,17.40
2022-09-07T03:58:13.586Z,17.40
2022-09-07T03:59:13.450Z,17.40
2022-09-07T04:00:13.508Z,17.40
2022-09-07T04:01:13.797Z,17.30
2022-09-07T04:02:13.656Z,17.30
2022-09-07T04:03:13.941Z,17.40
2022-09-07T04:04:12.778Z,17.30
2022-09-07T04:05:13.591Z,17.30
2022-09-07T04:06:13.383Z,17.10
2022-09-07T04:07:13.308Z,17.20
2022-09-07T04:08:13.256Z,17.20
2022-09-07T04:09:13.407Z,17.20
2022-09-07T04:10:13.470Z,17.10
2022-09-07T04:11:13.499Z,17.10
2022-09-07T04:12:13.882Z,17.10
2022-09-07T04:13:13.802Z,17.10
2022-09-07T04:14:13.945Z,17.20
2022-09-07T04:15:14.010Z,17.20
2022-09-07T04:16:12.863Z,17.20
2022-09-07T04:17:13.760Z,17.20
2022-09-07T04:18:18.709Z,17.30
2022-09-07T04:19:13.808Z,17.20
2022-09-07T04:20:14.326Z,17.30
2022-09-07T04:21:13.305Z,17.30
2022-09-07T04:22:13.217Z,17.30
2022-09-07T04:23:18.177Z,17.30
2022-09-07T04:24:13.170Z,17.20
2022-09-07T04:25:13.323Z,17.30
2022-09-07T04:26:13.207Z,17.30
2022-09-07T04:27:13.094Z,17.30
2022-09-07T04:28:12.841Z,17.20
2022-09-07T04:29:13.781Z,17.20
2022-09-07T04:30:13.926Z,17.30
2022-09-07T04:31:13.269Z,17.20
2022-09-07T04:32:15.844Z,17.20
2022-09-07T04:33:13.218Z,17.10
2022-09-07T04:34:13.378Z,17.10
2022-09-07T04:35:13.333Z,17.10
2022-09-07T04:36:13.282Z,17.10
2022-09-07T04:37:13.146Z,17.10
2022-09-07T04:38:12.986Z,17.20
2022-09-07T04:39:12.864Z,17.10
2022-09-07T04:40:14.077Z,17.10
2022-09-07T04:41:12.970Z,17.10
2022-09-07T04:42:12.958Z,17.30
2022-09-07T04:43:14.047Z,17.30
2022-09-07T04:44:16.612Z,17.20
2022-09-07T04:45:12.872Z,17.20
2022-09-07T04:46:14.148Z,17.20
2022-09-07T04:47:15.021Z,17.20
2022-09-07T04:48:12.844Z,17.20
2022-09-07T04:49:14.077Z,17.10
2022-09-07T04:50:12.951Z,17.20
2022-09-07T04:51:12.767Z,17.20
2022-09-07T04:52:13.817Z,17.10
2022-09-07T04:53:13.673Z,17.20
2022-09-07T04:54:13.882Z,17.10
2022-09-07T04:55:14.064Z,17.10
2022-09-07T04:56:16.797Z,17.10
2022-09-07T04:57:13.015Z,17.10
2022-09-07T04:58:12.871Z,17.10
2022-09-07T04:59:13.885Z,17.30
2022-09-07T05:00:12.661Z,17.40
2022-09-07T05:01:13.617Z,17.30
2022-09-07T05:02:13.924Z,17.20
2022-09-07T05:03:13.232Z,17.20
2022-09-07T05:04:13.092Z,17.20
2022-09-07T05:05:12.972Z,17.10
2022-09-07T05:06:12.928Z,17.10
2022-09-07T05:07:12.877Z,17.30
2022-09-07T05:08:13.776Z,17.30
2022-09-07T05:09:13.693Z,17.30
2022-09-07T05:10:13.672Z,17.30
2022-09-07T05:11:13.571Z,17.30
2022-09-07T05:12:13.607Z,17.30
2022-09-07T05:13:13.797Z,17.30
2022-09-07T05:14:13.815Z,17.30
2022-09-07T05:15:15.705Z,17.40
2022-09-07T05:16:13.741Z,17.40
2022-09-07T05:17:13.656Z,17.40
2022-09-07T05:18:13.853Z,17.40
2022-09-07T05:19:13.812Z,17.40
2022-09-07T05:20:20.076Z,17.40
2022-09-07T05:21:13.391Z,17.40
2022-09-07T05:22:13.384Z,17.30
2022-09-07T05:23:13.286Z,17.20
2022-09-07T05:24:13.396Z,17.20
2022-09-07T05:25:13.571Z,17.40
2022-09-07T05:26:13.740Z,17.40
2022-09-07T05:27:13.578Z,17.40
2022-09-07T05:28:18.579Z,17.40
2022-09-07T05:32:18.494Z,17.50
2022-09-07T05:33:13.393Z,17.60
2022-09-07T05:35:13.948Z,17.50
2022-09-07T05:36:13.278Z,17.40
2022-09-07T05:37:13.107Z,17.50
2022-09-07T05:38:13.057Z,17.60
2022-09-07T05:39:13.345Z,17.60
2022-09-07T05:40:14.083Z,17.60
2022-09-07T05:41:13.005Z,17.60
2022-09-07T05:42:12.981Z,17.70
2022-09-07T05:43:13.375Z,17.50
2022-09-07T05:45:13.426Z,17.50
2022-09-07T05:46:13.592Z,17.50
2022-09-07T05:47:13.631Z,17.60
2022-09-07T05:48:13.539Z,17.50
2022-09-07T05:49:13.534Z,17.60
2022-09-07T05:50:13.698Z,17.50
2022-09-07T05:51:13.576Z,17.70
2022-09-07T05:52:13.759Z,17.70
2022-09-07T05:53:13.877Z,17.60
2022-09-07T05:54:14.045Z,17.70
2022-09-07T05:55:28.816Z,17.70
2022-09-07T05:56:13.590Z,17.80
2022-09-07T05:57:13.481Z,17.90
2022-09-07T05:58:13.386Z,17.80
2022-09-07T05:59:13.150Z,17.80
2022-09-07T06:00:13.139Z,17.80
2022-09-07T06:01:13.126Z,17.80
2022-09-07T06:02:13.294Z,17.90
2022-09-07T06:03:13.870Z,17.90
2022-09-07T06:04:13.240Z,17.90
2022-09-07T06:05:13.232Z,17.90
2022-09-07T06:06:13.043Z,17.80
2022-09-07T06:07:22.984Z,18.00
2022-09-07T06:08:13.347Z,18.00
2022-09-07T06:09:13.202Z,18.00
2022-09-07T06:10:44.256Z,18.10
2022-09-07T06:11:13.605Z,18.10
2022-09-07T06:12:13.560Z,18.20
2022-09-07T06:13:13.716Z,18.30
2022-09-07T06:14:13.576Z,18.30
2022-09-07T06:15:13.432Z,18.30
2022-09-07T06:16:13.411Z,18.20
2022-09-07T06:17:15.278Z,18.30
2022-09-07T06:18:13.122Z,18.40
2022-09-07T06:19:14.835Z,18.40
2022-09-07T06:20:13.853Z,18.40
2022-09-07T06:21:14.001Z,18.40
2022-09-07T06:22:13.092Z,18.50
2022-09-07T06:23:13.343Z,18.50
2022-09-07T06:24:14.471Z,18.40
2022-09-07T06:25:14.911Z,18.60
2022-09-07T06:26:13.032Z,18.40
2022-09-07T06:27:12.952Z,18.40
2022-09-07T06:28:12.785Z,18.30
2022-09-07T06:29:13.636Z,18.30
2022-09-07T06:30:13.423Z,18.40
2022-09-07T06:31:13.263Z,18.30
2022-09-07T06:32:43.038Z,18.60
2022-09-07T06:33:14.328Z,18.50
2022-09-07T06:34:13.239Z,18.40
2022-09-07T06:35:13.153Z,18.40
2022-09-07T06:36:12.999Z,18.70
2022-09-07T06:37:12.875Z,18.60
2022-09-07T06:38:13.801Z,18.60
2022-09-07T06:39:13.942Z,18.80
2022-09-07T06:40:13.195Z,18.70
2022-09-07T06:42:13.229Z,19.00
2022-09-07T06:43:13.055Z,19.10
2022-09-07T06:44:13.114Z,19.00
2022-09-07T06:45:12.946Z,19.10
2022-09-07T06:47:13.059Z,19.10
2022-09-07T06:48:13.188Z,18.90
2022-09-07T06:49:13.074Z,19.10
2022-09-07T06:50:12.997Z,19.20
2022-09-07T06:51:13.994Z,19.20
2022-09-07T06:52:13.035Z,19.30
2022-09-07T06:53:35.234Z,18.90
2022-09-07T06:55:15.705Z,19.20
2022-09-07T06:56:14.064Z,19.20
2022-09-07T06:57:13.309Z,19.00
2022-09-07T06:58:13.493Z,19.00
2022-09-07T06:59:13.337Z,19.10
2022-09-07T07:00:14.699Z,19.00
2022-09-07T07:01:15.417Z,19.00
2022-09-07T07:02:13.753Z,19.10
2022-09-07T07:03:13.824Z,19.20
2022-09-07T07:04:13.710Z,19.30
2022-09-07T07:05:13.937Z,19.40
2022-09-07T07:06:13.997Z,19.40
2022-09-07T07:07:13.019Z,19.70
2022-09-07T07:08:14.717Z,19.40
2022-09-07T07:09:13.594Z,19.40
2022-09-07T07:10:13.509Z,19.50
2022-09-07T07:11:13.394Z,19.30
2022-09-07T07:12:13.618Z,19.30
2022-09-07T07:14:13.372Z,19.20
2022-09-07T07:15:13.733Z,19.40
2022-09-07T07:16:13.675Z,19.70
2022-09-07T07:17:13.744Z,19.90
2022-09-07T07:18:21.274Z,19.80
2022-09-07T07:19:13.788Z,19.90
2022-09-07T07:20:13.621Z,19.60
2022-09-07T07:21:13.697Z,19.90
2022-09-07T07:22:36.036Z,19.80
2022-09-07T07:23:13.254Z,19.70
2022-09-07T07:24:13.309Z,20.00
2022-09-07T07:25:13.191Z,20.20
2022-09-07T07:26:13.283Z,20.20
2022-09-07T07:27:13.198Z,20.20
2022-09-07T07:29:15.837Z,20.40
2022-09-07T07:30:13.063Z,20.20
2022-09-07T07:31:13.286Z,20.10
2022-09-07T07:32:13.572Z,20.00
2022-09-07T07:33:13.927Z,20.30
2022-09-07T07:34:12.957Z,20.30
2022-09-07T07:35:14.106Z,20.40
2022-09-07T07:36:14.924Z,20.40
2022-09-07T07:37:13.124Z,20.00
2022-09-07T07:42:13.830Z,20.60
2022-09-07T07:43:14.119Z,20.60
2022-09-07T07:44:14.850Z,20.40
2022-09-07T07:46:13.942Z,20.60
2022-09-07T07:47:12.805Z,20.70
2022-09-07T07:48:14.073Z,20.70
2022-09-07T07:49:12.979Z,21.00
2022-09-07T07:50:33.969Z,20.70
2022-09-07T07:51:14.740Z,20.80
2022-09-07T07:53:42.459Z,20.70
2022-09-07T07:54:15.654Z,20.70
2022-09-07T07:55:43.410Z,20.60
2022-09-07T07:56:16.526Z,20.40
2022-09-07T07:57:13.697Z,20.60
2022-09-07T07:58:13.786Z,20.50
2022-09-07T07:59:15.867Z,20.70
2022-09-07T08:00:14.429Z,20.60
2022-09-07T08:01:14.096Z,20.70
2022-09-07T08:02:14.952Z,20.80
2022-09-07T08:03:13.238Z,21.00
2022-09-07T08:04:13.429Z,20.90
2022-09-07T08:05:13.392Z,20.90
2022-09-07T08:06:15.114Z,21.00
2022-09-07T08:07:13.185Z,21.10
2022-09-07T08:08:15.967Z,21.30
2022-09-07T08:09:14.030Z,21.10
2022-09-07T08:10:15.062Z,21.20
2022-09-07T08:11:13.431Z,21.30
2022-09-07T08:12:13.231Z,21.60
2022-09-07T08:13:13.130Z,21.30
2022-09-07T08:14:14.646Z,21.30
2022-09-07T08:15:13.583Z,21.40
2022-09-07T08:16:13.720Z,21.60
2022-09-07T08:17:13.623Z,21.50
2022-09-07T08:18:13.533Z,21.70
2022-09-07T08:19:13.872Z,21.80
2022-09-07T08:20:14.421Z,21.90
2022-09-07T08:21:13.759Z,21.90
2022-09-07T08:22:13.996Z,22.00
2022-09-07T08:23:12.977Z,22.20
2022-09-07T08:24:16.052Z,22.00
2022-09-07T08:25:13.191Z,22.00
2022-09-07T08:26:13.114Z,22.10
2022-09-07T08:27:13.485Z,22.10
2022-09-07T08:28:13.387Z,22.10
2022-09-07T08:29:14.943Z,22.50
2022-09-07T08:30:15.500Z,22.20
2022-09-07T08:31:13.439Z,22.30
2022-09-07T08:32:13.424Z,22.50
2022-09-07T08:33:13.471Z,22.30
2022-09-07T08:34:13.692Z,22.50
2022-09-07T08:35:14.069Z,22.60
2022-09-07T08:36:13.054Z,22.70
2022-09-07T08:37:13.376Z,22.80
2022-09-07T08:38:19.147Z,22.90
2022-09-07T08:39:13.818Z,22.50
2022-09-07T08:40:15.704Z,22.60
2022-09-07T08:41:15.220Z,22.60
2022-09-07T08:42:13.299Z,22.80
2022-09-07T08:43:14.595Z,22.90
2022-09-07T08:44:15.495Z,23.10
2022-09-07T08:45:15.207Z,23.10
2022-09-07T08:46:17.338Z,22.80
2022-09-07T08:47:15.284Z,22.60
2022-09-07T08:48:13.513Z,23.00
2022-09-07T08:49:15.101Z,23.50
2022-09-07T08:50:13.227Z,23.70
2022-09-07T08:51:19.060Z,23.80
2022-09-07T08:52:13.379Z,23.80
2022-09-07T08:53:16.806Z,23.40
2022-09-07T08:54:13.683Z,23.30
2022-09-07T08:55:17.763Z,23.10
2022-09-07T08:56:17.799Z,23.00
2022-09-07T08:57:22.651Z,23.00
2022-09-07T08:58:27.034Z,23.00
2022-09-07T08:59:13.079Z,23.00
2022-09-07T09:00:16.987Z,22.80
2022-09-07T09:01:32.460Z,22.50
2022-09-07T09:02:35.068Z,22.80
2022-09-07T09:03:32.024Z,23.00
2022-09-07T09:04:17.678Z,23.20
2022-09-07T09:05:19.520Z,23.40
2022-09-07T09:06:18.029Z,23.60
2022-09-07T09:07:17.826Z,23.80
2022-09-07T09:08:13.889Z,23.40
2022-09-07T09:09:13.985Z,23.70
2022-09-07T09:10:18.118Z,23.70
2022-09-07T09:11:16.554Z,23.80
2022-09-07T09:12:15.389Z,24.10
2022-09-07T09:13:15.160Z,24.10
2022-09-07T09:14:13.126Z,24.20
2022-09-07T09:15:13.175Z,24.00
2022-09-07T09:16:13.114Z,24.10
2022-09-07T09:17:16.737Z,23.60
2022-09-07T09:18:14.546Z,23.80
2022-09-07T09:19:17.199Z,23.50
2022-09-07T09:20:17.703Z,24.00
2022-09-07T09:21:18.048Z,24.30
2022-09-07T09:22:17.417Z,23.90
2022-09-07T09:23:18.403Z,23.60
2022-09-07T09:24:18.305Z,23.80
2022-09-07T09:25:16.580Z,25.40
2022-09-07T09:26:13.542Z,25.50
2022-09-07T09:27:18.019Z,25.40
2022-09-07T09:28:14.106Z,25.60
2022-09-07T09:29:12.946Z,25.70
2022-09-07T09:30:12.839Z,25.90
2022-09-07T09:31:13.913Z,25.90
2022-09-07T09:32:12.864Z,25.50
2022-09-07T09:33:14.624Z,25.20
2022-09-07T09:34:13.582Z,24.50
2022-09-07T09:35:13.387Z,25.40
2022-09-07T09:36:14.656Z,25.90
2022-09-07T09:37:13.584Z,25.60
2022-09-07T09:38:16.538Z,26.00
2022-09-07T09:39:18.438Z,25.70
2022-09-07T09:40:16.870Z,25.20
2022-09-07T09:41:12.815Z,25.90
2022-09-07T09:42:15.679Z,25.90
2022-09-07T09:43:18.270Z,25.80
2022-09-07T09:44:13.278Z,25.50
2022-09-07T09:45:15.008Z,26.50
2022-09-07T09:46:16.237Z,25.80
2022-09-07T09:47:31.286Z,25.20
2022-09-07T09:48:17.328Z,25.60
2022-09-07T09:49:15.416Z,25.30
2022-09-07T09:52:28.907Z,25.70
2022-09-07T09:52:43.531Z,25.30
2022-09-07T09:53:15.324Z,25.90
2022-09-07T09:54:18.738Z,25.80
2022-09-07T09:55:33.832Z,26.00
2022-09-07T09:56:16.226Z,26.10
2022-09-07T09:57:16.655Z,26.70
2022-09-07T10:00:27.959Z,26.30
2022-09-07T10:01:22.701Z,26.50
2022-09-07T10:04:17.538Z,26.40
2022-09-07T10:05:16.866Z,25.90
2022-09-07T10:06:17.263Z,25.50
2022-09-07T10:07:18.965Z,25.10
2022-09-07T10:08:16.464Z,25.20
2022-09-07T10:09:18.878Z,24.70
2022-09-07T10:10:19.589Z,25.20
2022-09-07T10:11:13.461Z,24.70
2022-09-07T10:12:15.889Z,24.60
2022-09-07T10:13:15.321Z,24.90
2022-09-07T10:14:14.142Z,24.90
2022-09-07T10:15:17.087Z,24.30
2022-09-07T10:16:13.053Z,23.60
2022-09-07T10:17:13.007Z,23.90
2022-09-07T10:18:15.348Z,24.20
2022-09-07T10:19:18.839Z,24.80
2022-09-07T10:20:12.937Z,24.90
2022-09-07T10:21:14.283Z,24.60
2022-09-07T10:22:16.265Z,25.30
2022-09-07T10:23:15.717Z,25.00
2022-09-07T10:24:18.188Z,25.10
2022-09-07T10:25:17.093Z,26.00
2022-09-07T10:26:16.829Z,25.80
2022-09-07T10:27:16.375Z,25.10
2022-09-07T10:28:15.092Z,25.80
2022-09-07T10:29:13.381Z,25.00
2022-09-07T10:30:14.078Z,24.70
2022-09-07T10:31:15.528Z,24.50
2022-09-07T10:32:14.039Z,24.70
2022-09-07T10:33:15.972Z,24.40
2022-09-07T10:34:27.621Z,24.10
2022-09-07T10:35:16.701Z,24.20
2022-09-07T10:36:16.998Z,24.40
2022-09-07T10:37:12.859Z,24.50
2022-09-07T10:38:18.573Z,24.50
2022-09-07T10:39:17.819Z,24.50
2022-09-07T10:40:13.883Z,24.50
2022-09-07T10:41:15.964Z,24.80
2022-09-07T10:42:16.196Z,24.60
2022-09-07T10:43:21.456Z,24.60
2022-09-07T10:44:17.604Z,24.10
2022-09-07T10:45:15.065Z,23.80
2022-09-07T10:46:56.182Z,24.10
2022-09-07T10:47:16.805Z,24.40
2022-09-07T10:48:20.036Z,24.30
2022-09-07T10:49:14.584Z,24.60
2022-09-07T10:50:22.547Z,24.70
2022-09-07T10:51:14.830Z,25.50
2022-09-07T10:52:17.203Z,26.40
2022-09-07T10:53:39.739Z,26.20
2022-09-07T10:54:31.776Z,25.00
2022-09-07T10:55:19.237Z,25.60
2022-09-07T10:56:16.111Z,26.40
2022-09-07T10:57:18.070Z,27.10
2022-09-07T10:58:17.794Z,27.80
2022-09-07T10:59:16.221Z,27.00
2022-09-07T11:00:17.153Z,27.50
2022-09-07T11:01:17.843Z,27.50
2022-09-07T11:02:17.339Z,27.20
2022-09-07T11:03:25.627Z,27.90
2022-09-07T11:04:17.262Z,27.40
2022-09-07T11:05:17.157Z,27.80
2022-09-07T11:06:16.689Z,28.10
2022-09-07T11:07:18.556Z,27.90
2022-09-07T11:08:16.529Z,27.20
2022-09-07T11:09:20.030Z,26.40
2022-09-07T11:10:18.839Z,26.00
2022-09-07T11:11:18.401Z,25.70
2022-09-07T11:12:17.384Z,25.10
2022-09-07T11:13:16.457Z,25.60
2022-09-07T11:14:17.950Z,25.50
2022-09-07T11:15:17.791Z,25.30
2022-09-07T11:17:16.660Z,24.80
2022-09-07T11:18:21.472Z,26.80
2022-09-07T11:19:36.146Z,26.60
2022-09-07T11:20:21.393Z,25.80
2022-09-07T11:21:56.118Z,25.10
2022-09-07T11:22:14.318Z,24.70
2022-09-07T11:23:17.919Z,24.20
2022-09-07T11:24:18.441Z,24.40
2022-09-07T11:25:31.494Z,24.60
2022-09-07T11:26:20.417Z,24.70
2022-09-07T11:27:16.923Z,24.40
2022-09-07T11:28:13.739Z,24.80
2022-09-07T11:29:30.827Z,24.90
2022-09-07T11:30:17.187Z,24.60
2022-09-07T11:31:17.842Z,24.30
2022-09-07T11:32:16.646Z,24.30
2022-09-07T11:33:16.260Z,24.50
2022-09-07T11:34:25.874Z,24.80
2022-09-07T11:35:18.224Z,24.80
2022-09-07T11:36:15.261Z,25.20
2022-09-07T11:37:17.498Z,25.50
2022-09-07T11:38:16.691Z,25.00
2022-09-07T11:39:19.175Z,25.20
2022-09-07T11:40:18.611Z,24.70
2022-09-07T11:41:16.931Z,24.80
2022-09-07T11:42:44.049Z,25.90
2022-09-07T11:43:18.198Z,26.70
2022-09-07T11:44:16.931Z,26.50
2022-09-07T11:45:17.006Z,28.10
2022-09-07T11:46:17.239Z,28.50
2022-09-07T11:47:18.581Z,28.00
2022-09-07T11:48:19.847Z,27.20
2022-09-07T11:49:17.745Z,28.50
2022-09-07T11:50:18.427Z,28.50
2022-09-07T11:51:17.189Z,27.80
2022-09-07T11:52:19.203Z,28.00
2022-09-07T11:53:19.537Z,27.50
2022-09-07T11:54:19.044Z,28.10
2022-09-07T11:55:18.533Z,28.60
2022-09-07T11:56:19.146Z,28.80
2022-09-07T11:57:19.930Z,29.50
2022-09-07T11:58:19.123Z,29.00
2022-09-07T11:59:19.208Z,28.40
2022-09-07T12:00:17.232Z,28.40
2022-09-07T12:01:18.792Z,29.00
2022-09-07T12:02:19.233Z,28.50
2022-09-07T12:03:22.607Z,28.50
2022-09-07T12:04:17.725Z,29.00
2022-09-07T12:05:19.175Z,29.00
2022-09-07T12:06:19.357Z,29.20
2022-09-07T12:07:18.915Z,29.30
2022-09-07T12:08:19.017Z,29.70
2022-09-07T12:09:17.512Z,26.90
2022-09-07T12:10:19.248Z,27.70
2022-09-07T12:11:23.247Z,28.80
2022-09-07T12:12:19.718Z,28.90
2022-09-07T12:13:20.013Z,28.40
2022-09-07T12:14:18.572Z,26.90
2022-09-07T12:15:20.955Z,26.10
2022-09-07T12:16:19.502Z,27.00
2022-09-07T12:17:19.474Z,27.60
2022-09-07T12:18:19.267Z,28.10
2022-09-07T12:19:19.261Z,28.00
2022-09-07T12:20:19.132Z,27.60
2022-09-07T12:21:18.422Z,27.70
2022-09-07T12:22:18.307Z,27.70
2022-09-07T12:23:19.631Z,27.80
2022-09-07T12:24:17.925Z,27.20
2022-09-07T12:25:20.381Z,27.00
2022-09-07T12:26:18.531Z,26.20
2022-09-07T12:27:19.777Z,26.80
2022-09-07T12:28:21.984Z,26.50
2022-09-07T12:29:19.634Z,26.90
2022-09-07T12:30:19.924Z,27.00
2022-09-07T12:31:20.321Z,27.00
2022-09-07T12:33:19.688Z,26.40
2022-09-07T12:34:19.923Z,26.40
2022-09-07T12:35:18.655Z,25.60
2022-09-07T12:36:19.895Z,25.60
2022-09-07T12:37:18.828Z,25.50
2022-09-07T12:38:19.319Z,24.90
2022-09-07T12:39:20.922Z,24.80
2022-09-07T12:40:17.926Z,25.10
2022-09-07T12:41:19.478Z,25.10
2022-09-07T12:42:34.319Z,25.60
2022-09-07T12:43:17.718Z,25.40
2022-09-07T12:44:18.179Z,25.70
2022-09-07T12:45:18.681Z,24.70
2022-09-07T12:46:18.402Z,25.10
2022-09-07T12:47:18.571Z,25.60
2022-09-07T12:48:20.126Z,25.90
2022-09-07T12:49:18.968Z,25.60
2022-09-07T12:50:19.565Z,25.90
2022-09-07T12:51:59.679Z,25.70
2022-09-07T12:52:16.861Z,25.80
2022-09-07T12:53:18.144Z,26.00
2022-09-07T12:54:18.656Z,25.80
2022-09-07T12:55:27.824Z,25.00
2022-09-07T12:56:20.647Z,25.20
2022-09-07T12:57:31.331Z,25.30
2022-09-07T12:58:18.852Z,25.60
2022-09-07T12:59:20.051Z,25.70
2022-09-07T13:00:19.132Z,25.60
2022-09-07T13:01:18.861Z,25.60
2022-09-07T13:02:18.157Z,25.20
2022-09-07T13:04:19.351Z,26.10
2022-09-07T13:05:18.176Z,26.00
2022-09-07T13:06:18.658Z,25.00
2022-09-07T13:07:19.548Z,25.10
2022-09-07T13:08:14.958Z,25.60
2022-09-07T13:09:17.228Z,25.60
2022-09-07T13:10:17.847Z,25.50
2022-09-07T13:11:16.986Z,25.20
2022-09-07T13:12:52.778Z,25.40
2022-09-07T13:13:18.866Z,25.50
2022-09-07T13:14:17.978Z,26.00
2022-09-07T13:15:24.010Z,26.50
2022-09-07T13:16:18.700Z,26.00